createdAt,value
2019-05-25T00:56:17.676Z,68.81
2019-05-25T00:58:52.950Z,69.31
2019-05-25T01:01:28.512Z,70.19
2019-05-25T01:04:04.240Z,70.89
2019-05-25T07:26:22.669Z,56.54
2019-05-25T07:28:57.442Z,56.99
2019-05-25T07:31:32.112Z,56.72
2019-05-25T07:34:06.705Z,56.61
2019-05-25T07:36:40.751Z,55.63
2019-05-25T07:39:14.858Z,54.90
2019-05-25T07:41:49.035Z,54.20
2019-05-25T07:44:26.069Z,52.44
2019-05-25T07:47:00.526Z,51.86
2019-05-25T07:49:36.763Z,51.62
2019-05-25T07:52:11.304Z,51.18
2019-05-25T07:54:47.625Z,50.87
2019-05-25T07:57:22.127Z,50.79
2019-05-25T07:59:58.308Z,50.81
2019-05-25T08:02:34.736Z,50.95
2019-05-25T08:05:09.546Z,51.14
2019-05-25T08:07:44.195Z,51.72
2019-05-25T08:10:19.908Z,51.64
2019-05-25T08:12:56.402Z,51.66
2019-05-25T08:15:31.879Z,51.24
2019-05-25T08:18:08.147Z,50.37
2019-05-25T08:20:47.156Z,49.84
2019-05-25T08:23:22.062Z,49.61
2019-05-25T08:27:41.529Z,49.39
2019-05-25T08:30:16.595Z,49.44
2019-05-25T08:32:50.134Z,49.47
2019-05-25T08:35:23.370Z,49.61
2019-05-25T08:38:00.539Z,49.65
2019-05-25T08:40:33.797Z,49.65
2019-05-25T08:43:13.652Z,49.63
2019-05-25T08:45:46.883Z,49.63
2019-05-25T08:48:20.252Z,49.70
2019-05-25T08:50:53.327Z,49.77
2019-05-25T08:53:40.781Z,49.64
2019-05-25T08:56:01.936Z,49.25
2019-05-25T08:58:47.470Z,49.24
2019-05-25T09:01:09.548Z,49.35
2019-05-25T09:03:44.339Z,49.36
2019-05-25T09:06:17.487Z,49.31
2019-05-25T09:08:52.206Z,49.05
2019-05-25T09:11:25.382Z,48.70
2019-05-25T09:13:57.565Z,49.41
2019-05-25T09:16:30.590Z,49.33
2019-05-25T09:19:04.028Z,49.33
2019-05-25T09:21:37.212Z,49.13
2019-05-25T09:24:10.582Z,48.79
2019-05-25T09:26:45.000Z,48.59
2019-05-25T09:29:18.619Z,48.45
2019-05-25T09:31:53.177Z,48.54
2019-05-25T09:34:26.956Z,48.79
2019-05-25T09:37:00.708Z,48.74
2019-05-25T09:39:33.951Z,48.74
2019-05-25T09:42:11.806Z,48.90
2019-05-25T09:44:45.199Z,48.91
2019-05-25T09:47:18.459Z,49.42
2019-05-25T09:49:52.062Z,48.23
2019-05-25T09:52:26.187Z,47.91
2019-05-25T09:54:59.828Z,47.78
2019-05-25T09:57:33.408Z,47.76
2019-05-25T10:00:09.503Z,47.99
2019-05-25T10:02:43.507Z,48.45
2019-05-25T10:05:19.878Z,48.65
2019-05-25T10:07:53.474Z,48.90
2019-05-25T10:10:29.013Z,48.88
2019-05-25T10:13:04.452Z,48.80
2019-05-25T10:15:37.737Z,48.65
2019-05-25T10:18:11.140Z,48.90
2019-05-25T10:20:47.606Z,49.00
2019-05-25T10:23:21.148Z,48.88
2019-05-25T10:25:54.650Z,49.02
2019-05-25T10:28:28.065Z,49.00
2019-05-25T10:31:01.718Z,48.71
2019-05-25T10:33:36.701Z,48.93
2019-05-25T10:36:10.399Z,48.17
2019-05-25T10:38:44.317Z,47.83
2019-05-25T10:41:18.079Z,47.68
2019-05-25T10:43:51.603Z,47.60
2019-05-25T10:46:26.622Z,47.58
2019-05-25T10:49:00.042Z,47.37
2019-05-25T10:51:37.417Z,47.10
2019-05-25T10:54:11.182Z,47.21
2019-05-25T10:56:45.511Z,47.44
2019-05-25T10:59:20.657Z,47.41
2019-05-25T11:01:57.347Z,47.26
2019-05-25T11:04:30.975Z,47.73
2019-05-25T11:07:04.184Z,48.01
2019-05-25T11:09:40.153Z,48.30
2019-05-25T11:12:13.689Z,48.30
2019-05-25T11:14:47.409Z,48.26
2019-05-25T11:17:22.656Z,48.27
2019-05-25T11:19:58.361Z,48.17
2019-05-25T11:22:32.400Z,48.08
2019-05-25T11:33:06.235Z,48.38
2019-05-25T11:35:39.383Z,48.15
2019-05-25T11:38:23.569Z,48.21
2019-05-25T11:40:53.742Z,48.40
2019-05-25T11:43:30.261Z,48.00
2019-05-25T11:46:05.852Z,48.18
2019-05-25T11:48:40.759Z,47.92
2019-05-25T11:51:15.469Z,47.55
2019-05-25T11:53:51.531Z,47.62
2019-05-25T11:56:26.240Z,47.51
2019-05-25T11:59:04.571Z,47.45
2019-05-25T12:01:34.506Z,47.23
2019-05-25T12:04:07.810Z,47.20
2019-05-25T12:06:42.653Z,47.03
2019-05-25T12:09:15.951Z,46.71
2019-05-25T12:11:52.135Z,46.68
2019-05-25T12:14:25.422Z,46.39
2019-05-25T12:17:00.164Z,46.74
2019-05-25T12:19:33.413Z,46.67
2019-05-25T12:22:06.914Z,46.48
2019-05-25T12:24:43.043Z,46.18
2019-05-25T12:27:16.970Z,45.89
2019-05-25T12:29:58.036Z,45.91
2019-05-25T12:32:32.534Z,45.63
2019-05-25T12:35:07.437Z,45.40
2019-05-25T12:37:40.574Z,45.49
2019-05-25T12:40:14.060Z,45.26
2019-05-25T12:42:47.169Z,45.33
2019-05-25T12:45:24.153Z,45.59
2019-05-25T12:47:57.101Z,45.13
2019-05-25T12:50:30.126Z,45.10
2019-05-25T12:53:03.368Z,45.35
2019-05-25T12:55:38.114Z,45.38
2019-05-25T12:58:19.842Z,45.26
2019-05-25T13:00:56.272Z,45.31
2019-05-25T13:03:30.739Z,45.20
2019-05-25T13:06:04.018Z,45.00
2019-05-25T13:08:37.098Z,45.02
2019-05-25T13:11:10.369Z,44.97
2019-05-25T13:13:46.648Z,45.20
2019-05-25T13:16:21.644Z,44.97
2019-05-25T13:18:55.050Z,45.20
2019-05-25T13:21:28.445Z,45.46
2019-05-25T13:24:03.240Z,45.17
2019-05-25T13:26:38.091Z,45.17
2019-05-25T13:29:14.487Z,45.19
2019-05-25T13:31:49.266Z,45.46
2019-05-25T13:34:23.663Z,44.97
2019-05-25T13:37:09.852Z,44.88
2019-05-25T13:39:34.777Z,44.62
2019-05-25T13:42:07.949Z,44.55
2019-05-25T13:44:41.101Z,44.18
2019-05-25T13:47:14.191Z,43.92
2019-05-25T13:49:47.236Z,43.56
2019-05-25T13:52:20.433Z,43.60
2019-05-25T13:54:54.957Z,43.62
2019-05-25T13:57:27.996Z,43.57
2019-05-25T14:00:01.482Z,43.60
2019-05-25T14:02:40.629Z,43.83
2019-05-25T14:05:12.959Z,43.72
2019-05-25T14:07:47.547Z,43.38
2019-05-25T14:10:20.666Z,43.37
2019-05-25T14:12:53.875Z,43.34
2019-05-25T14:15:28.677Z,43.32
2019-05-25T14:18:11.363Z,43.31
2019-05-25T14:20:44.487Z,43.14
2019-05-25T14:23:19.218Z,42.71
2019-05-25T14:25:59.818Z,42.52
2019-05-25T14:28:38.767Z,42.80
2019-05-25T14:31:08.640Z,42.72
2019-05-25T14:33:41.940Z,42.20
2019-05-25T14:36:15.161Z,41.96
2019-05-25T14:38:48.139Z,41.79
2019-05-25T14:41:21.441Z,41.67
2019-05-25T14:43:54.604Z,41.82
2019-05-25T14:46:29.418Z,41.90
2019-05-25T14:49:02.490Z,41.29
2019-05-25T14:51:40.424Z,41.07
2019-05-25T14:54:13.404Z,40.92
2019-05-25T14:56:46.500Z,41.20
2019-05-25T14:59:19.524Z,41.57
2019-05-25T15:02:01.875Z,41.48
2019-05-25T15:04:28.726Z,41.68
